To NAV CANADA Home Page Login to a new session Search on AWWS site Feedback and Comments Disclaimer Vers la page française équivalente Tips FAQ What's new on the site To the Forecasts and Observations / NOTAM section To "File a Flight Plan" website Publications and other links Update of the User's profile FIC Telephone Numbers My Weather Data Folder Route Weather Data Regional Weather Data Local Weather Data To the Forecasts and Observations / NOTAM section
Request Generated 03/28/2017 at 02:17:39 UTC . Weather information available at that time is displayed.

METAR/TAF

HALIFAX/STANFIELD INTL/NS    (show WxCam)

METAR CYHZ 280200Z CCA 12013KT 1 1/2SM -SN OVC006 M04/M04 A3023 RMK
SN6NS2 /S03/ SLP247=
METAR CYHZ 280200Z 12013KT 1 1/2SM -SN OVC006 M04/M04 A3023 RMK
SN6NS2 SLP247=
METAR CYHZ 280100Z CCB 11013KT 1 1/2SM -SN BKN008 OVC020 M04/M05
A3026 RMK SF5SC3 /S01/ SLP255=
METAR CYHZ 280100Z CCA 11013KT 1 1/2SM -SN BKN008 OVC020 M04/M05
A3026 RMK SF5SC3 /S03/ SLP255=
METAR CYHZ 280100Z 11013KT 1 1/2SM -SN BKN008 OVC020 M04/M05 A3026
RMK SF5SC3 SLP255=
SPECI CYHZ 280039Z 11010KT 1 1/2SM -SN VV006 M04/M04 A3026 RMK SN8
SLP255=
METAR CYHZ 280000Z CCA 12009KT 1 1/2SM -SN SCT006 OVC015 M04/M04
A3027 RMK SF3SC5 /S02/ SLP261=
METAR CYHZ 280000Z 12009KT 1 1/2SM -SN SCT006 OVC015 M04/M04 A3027
RMK SF3SC5 SLP261=

TAF CYHZ 272338Z 2800/2824 14008KT 1/2SM SN VV008 TEMPO 2800/2806 2SM
-SN OVC020
BECMG 2800/2802 12012G22KT
FM280600 12012G22KT 1/2SM SN VV008 PROB30 2806/2808 1SM -SNPL BR
OVC010
FM280800 09015G25KT 3SM -SNPL OVC010 TEMPO 2808/2812 1SM -SN
VV006
FM281200 08015G25KT 3SM -SN SCT006 OVC010 PROB30 2812/2816 2SM
-FZDZ BR OVC006
FM281600 09010G20KT 6SM -DZ BR SCT008 OVC012
FM281800 08010KT P6SM FEW008 OVC015
RMK NXT FCST BY 280300Z=
Your time UTC time
Weather data provided by Environment Canada and NAV CANADA